Darstellungsparameter: Aktuell verwendete Einstellungen:
Skalierung der Graphiken ... ?
xyx+y,   Skalierungsfaktor:      Skalierung: Modus: x, Faktor: 1
Darstellungszeitraum ... ?
Vom - - bis: - -   Zeitraum: 13.01.2011 - 19.01.2011
Min/Max/Avg-Anzeige ... ?
Zeige MMA aktuell
Zeige MMA Monat
Zeige MMA alles
Zeige --A aktuell
Zeige --A Monat
Zeige --A alles
Keine MMA-Anzeige
MMA:
Average (ber die Originaldaten)
MMA-Basis: 13.01.2011 - 19.01.2011
Quicknavigation für Darstellung... ?
Tage:      1T, 2T, 3T, 5T -1T -2T -3T -5T +1T +2T +3T +5T
Wochen: 1W, 2W, 3W -1W -2W -3W +1W +2W +3W
Monate: 1M, 3M, 6M -1M -3M -6M +1M +3M +6M
Jahre:    1J, 3J, 5J, 10J -1J -3J -5J -10J +1J +3J +5J +10J
Nutze für die Darstellung ... ?
Originaldaten oder Mittelwerte auf ...
Stundenbasis Tagesbasis Wochenbasis
Monatsbasis Jahresbasis      Datenbasis: Original-Daten
Darstellen als:
Statistik (Auto) Statistik J:M      Darstellung:
Zur Graphik,    zurück zur Übersicht aller Sensoren.
 
Tabellarische Datenbersicht: ?
 
Sensor: Nr:Datum:Temp:Abs-Feuchte:Windchill:Wind:
Aussen-T/F 1 13-01-2011 00:02:02 9 C 6.88 g/m*3 9 C 0 km/h
2 13-01-2011 00:14:02 9.3 C 6.92 g/m*3 9.3 C 0 km/h
3 13-01-2011 00:26:02 9.3 C 7.01 g/m*3 9.3 C 0 km/h
4 13-01-2011 00:38:02 9.4 C 7.05 g/m*3 9.4 C 0 km/h
5 13-01-2011 00:50:01 9.5 C 7.1 g/m*3 9.5 C 0 km/h
6 13-01-2011 01:02:02 9.7 C 7.19 g/m*3 9.7 C 0 km/h
7 13-01-2011 01:14:02 9.9 C 7.28 g/m*3 9.9 C 0 km/h
8 13-01-2011 01:26:02 10 C 7.24 g/m*3 10 C 0 km/h
9 13-01-2011 01:38:02 10.1 C 7.28 g/m*3 10.1 C 0 km/h
10 13-01-2011 01:50:02 10.2 C 7.33 g/m*3 10.2 C 0 km/h
11 13-01-2011 02:02:02 10.5 C 7.37 g/m*3 10.5 C 0 km/h
12 13-01-2011 02:14:02 10.7 C 7.56 g/m*3 10.7 C 0 km/h
13 13-01-2011 02:26:02 10.7 C 7.56 g/m*3 10.7 C 0 km/h
14 13-01-2011 02:38:01 10.7 C 7.66 g/m*3 10.7 C 0 km/h
15 13-01-2011 02:50:02 10.4 C 7.61 g/m*3 10.4 C 0 km/h
16 13-01-2011 03:02:02 10.4 C 7.71 g/m*3 10.4 C 0 km/h
17 13-01-2011 03:14:01 10.3 C 7.85 g/m*3 10.3 C 0 km/h
18 13-01-2011 03:26:01 10.3 C 7.85 g/m*3 10.3 C 0 km/h
19 13-01-2011 03:38:02 10.3 C 7.85 g/m*3 10.3 C 0 km/h
20 13-01-2011 03:50:02 10.3 C 7.95 g/m*3 10.3 C 0 km/h
21 13-01-2011 04:02:01 10.5 C 8.05 g/m*3 10.5 C 0 km/h
22 13-01-2011 04:14:01 10.6 C 8.1 g/m*3 10.6 C 0 km/h
23 13-01-2011 04:26:02 10.9 C 8.16 g/m*3 10.9 C 0 km/h
24 13-01-2011 04:38:01 10.7 C 7.96 g/m*3 10.7 C 0 km/h
25 13-01-2011 04:50:02 10.8 C 8.01 g/m*3 10.8 C 0 km/h
Sensor: Nr:Datum:Temp:Abs-Feuchte:Windchill:Wind:
Aussen-T/F 26 13-01-2011 05:02:01 11 C 8.01 g/m*3 11 C 0 km/h
27 13-01-2011 05:14:01 11.1 C 8.16 g/m*3 11.1 C 0 km/h
28 13-01-2011 05:26:01 10.7 C 8.05 g/m*3 10.7 C 0 km/h
29 13-01-2011 05:38:02 10.8 C 8.2 g/m*3 10.8 C 0 km/h
30 13-01-2011 05:50:01 10.6 C 8.2 g/m*3 10.6 C 0 km/h
31 13-01-2011 06:02:02 10.7 C 8.25 g/m*3 10.7 C 0 km/h
32 13-01-2011 06:14:02 10.5 C 8.24 g/m*3 10.5 C 0 km/h
33 13-01-2011 06:26:01 10.6 C 8.3 g/m*3 10.6 C 0 km/h
34 13-01-2011 06:38:02 10.6 C 8.39 g/m*3 10.6 C 0 km/h
35 13-01-2011 06:50:01 10.5 C 8.34 g/m*3 10.5 C 0 km/h
36 13-01-2011 07:02:01 10.6 C 8.39 g/m*3 10.6 C 0 km/h
37 13-01-2011 07:14:02 10.5 C 8.44 g/m*3 10.5 C 0 km/h
38 13-01-2011 07:26:01 10.7 C 8.55 g/m*3 10.7 C 0 km/h
39 13-01-2011 07:38:01 10.7 C 8.45 g/m*3 10.7 C 0 km/h
40 13-01-2011 07:50:01 10.8 C 8.5 g/m*3 10.8 C 0 km/h
41 13-01-2011 08:02:01 10.9 C 8.55 g/m*3 10.9 C 0 km/h
42 13-01-2011 08:14:01 10.8 C 8.5 g/m*3 10.8 C 0 km/h
43 13-01-2011 08:26:02 10.8 C 8.4 g/m*3 10.8 C 0 km/h
44 13-01-2011 08:38:01 10.8 C 8.4 g/m*3 10.8 C 0 km/h
45 13-01-2011 08:50:02 10.9 C 8.45 g/m*3 10.9 C 0 km/h
46 13-01-2011 09:02:01 10.9 C 8.45 g/m*3 10.9 C 0 km/h
47 13-01-2011 09:14:01 11.2 C 8.51 g/m*3 11.2 C 0 km/h
48 13-01-2011 09:26:02 11.4 C 8.52 g/m*3 11.4 C 0 km/h
49 13-01-2011 09:38:01 11.4 C 8.42 g/m*3 11.4 C 0 km/h
50 13-01-2011 09:50:02 11.4 C 8.31 g/m*3 11.4 C 0 km/h
Sensor: Nr:Datum:Temp:Abs-Feuchte:Windchill:Wind:
Aussen-T/F 51 13-01-2011 10:02:01 11.5 C 8.37 g/m*3 11.5 C 0 km/h
52 13-01-2011 10:14:01 11.9 C 8.47 g/m*3 11.9 C 0 km/h
53 13-01-2011 10:26:01 11.8 C 8.31 g/m*3 11.8 C 0 km/h
54 13-01-2011 10:38:02 12.2 C 8.2 g/m*3 12.2 C 0 km/h
55 13-01-2011 10:50:01 12.3 C 8.25 g/m*3 12.3 C 0 km/h
56 13-01-2011 11:02:02 12.5 C 8.36 g/m*3 12.5 C 0 km/h
57 13-01-2011 11:14:02 12.3 C 8.25 g/m*3 12.3 C 0 km/h
58 13-01-2011 11:26:01 12.6 C 8.19 g/m*3 12.6 C 0 km/h
59 13-01-2011 11:38:01 12.5 C 8.25 g/m*3 12.5 C 0 km/h
60 13-01-2011 11:50:01 12.7 C 8.24 g/m*3 12.7 C 0 km/h
61 13-01-2011 12:02:01 12.6 C 8.3 g/m*3 12.6 C 0 km/h
62 13-01-2011 12:14:02 12.5 C 8.25 g/m*3 12.5 C 0 km/h
63 13-01-2011 12:26:01 12.4 C 8.3 g/m*3 12.4 C 0 km/h
64 13-01-2011 12:38:01 12.4 C 8.41 g/m*3 12.4 C 0 km/h
65 13-01-2011 12:50:01 12.4 C 8.3 g/m*3 12.4 C 0 km/h
66 13-01-2011 13:02:01 12.2 C 8.42 g/m*3 12.2 C 0 km/h
67 13-01-2011 13:14:01 12.2 C 8.42 g/m*3 12.2 C 0 km/h
68 13-01-2011 13:26:02 12.7 C 8.46 g/m*3 12.7 C 0 km/h
69 13-01-2011 13:38:01 12.7 C 8.35 g/m*3 12.7 C 0 km/h
70 13-01-2011 13:50:02 12.9 C 8.34 g/m*3 12.9 C 0 km/h
71 13-01-2011 14:02:01 13 C 8.28 g/m*3 13 C 0 km/h
72 13-01-2011 14:14:01 13 C 8.28 g/m*3 13 C 0 km/h
73 13-01-2011 14:26:02 13.2 C 8.27 g/m*3 13.2 C 0 km/h
74 13-01-2011 14:38:01 13.4 C 8.37 g/m*3 13.4 C 0 km/h
75 13-01-2011 14:50:01 13.3 C 8.2 g/m*3 13.3 C 0 km/h
Sensor: Nr:Datum:Temp:Abs-Feuchte:Windchill:Wind:
Aussen-T/F 76 13-01-2011 15:02:01 13.1 C 8.22 g/m*3 13.1 C 0 km/h
77 13-01-2011 15:14:01 13.2 C 8.27 g/m*3 13.2 C 0 km/h
78 13-01-2011 15:26:01 13.1 C 8.22 g/m*3 13.1 C 0 km/h
79 13-01-2011 15:38:02 13 C 8.28 g/m*3 13 C 0 km/h
80 13-01-2011 15:50:01 12.9 C 8.34 g/m*3 12.9 C 0 km/h
81 13-01-2011 16:02:02 12.9 C 8.45 g/m*3 12.9 C 0 km/h
82 13-01-2011 16:14:02 12.9 C 8.45 g/m*3 12.9 C 0 km/h
83 13-01-2011 16:26:01 13 C 8.39 g/m*3 13 C 0 km/h
84 13-01-2011 16:38:01 12.8 C 8.51 g/m*3 12.8 C 0 km/h
85 13-01-2011 16:50:01 12.9 C 8.57 g/m*3 12.9 C 0 km/h
86 13-01-2011 17:02:01 12.8 C 8.51 g/m*3 12.8 C 0 km/h
87 13-01-2011 17:14:02 12.9 C 8.57 g/m*3 12.9 C 0 km/h
88 13-01-2011 17:26:01 12.7 C 8.46 g/m*3 12.7 C 0 km/h
89 13-01-2011 17:38:01 12.9 C 8.57 g/m*3 12.9 C 0 km/h
90 13-01-2011 17:50:01 13 C 8.39 g/m*3 13 C 0 km/h
91 13-01-2011 18:02:01 13 C 8.39 g/m*3 13 C 0 km/h
92 13-01-2011 18:14:01 12.9 C 8.45 g/m*3 12.9 C 0 km/h
93 13-01-2011 18:26:02 12.7 C 8.35 g/m*3 12.7 C 0 km/h
94 13-01-2011 18:38:01 12.8 C 8.51 g/m*3 12.8 C 0 km/h
95 13-01-2011 18:50:02 12.8 C 8.4 g/m*3 12.8 C 0 km/h
96 13-01-2011 19:02:01 12.9 C 8.57 g/m*3 12.9 C 0 km/h
97 13-01-2011 19:14:01 12.8 C 8.51 g/m*3 12.8 C 0 km/h
98 13-01-2011 19:26:02 12.8 C 8.51 g/m*3 12.8 C 0 km/h
99 13-01-2011 19:38:02 12.8 C 8.51 g/m*3 12.8 C 0 km/h
100 13-01-2011 19:50:01 12.8 C 8.4 g/m*3 12.8 C 0 km/h
Sensor: Nr:Datum:Temp:Abs-Feuchte:Windchill:Wind:
Aussen-T/F 101 13-01-2011 20:02:02 12.8 C 8.51 g/m*3 12.8 C 0 km/h
102 13-01-2011 20:14:02 12.7 C 8.46 g/m*3 12.7 C 0 km/h
103 13-01-2011 20:26:01 12.6 C 8.52 g/m*3 12.6 C 0 km/h
104 13-01-2011 20:38:01 12.7 C 8.57 g/m*3 12.7 C 0 km/h
105 13-01-2011 20:50:01 12.7 C 8.57 g/m*3 12.7 C 0 km/h
106 13-01-2011 21:02:01 12.7 C 8.46 g/m*3 12.7 C 0 km/h
107 13-01-2011 21:14:01 12.7 C 8.46 g/m*3 12.7 C 0 km/h
108 13-01-2011 21:26:01 12.8 C 8.51 g/m*3 12.8 C 0 km/h
109 13-01-2011 21:38:01 13 C 8.39 g/m*3 13 C 0 km/h
110 13-01-2011 21:50:01 12.9 C 8.45 g/m*3 12.9 C 0 km/h
111 13-01-2011 22:02:01 12.9 C 8.45 g/m*3 12.9 C 0 km/h
112 13-01-2011 22:14:01 12.8 C 8.4 g/m*3 12.8 C 0 km/h
113 13-01-2011 22:26:01 12.8 C 8.29 g/m*3 12.8 C 0 km/h
114 13-01-2011 22:38:02 12.8 C 8.29 g/m*3 12.8 C 0 km/h
115 13-01-2011 22:50:01 12.8 C 8.29 g/m*3 12.8 C 0 km/h
116 13-01-2011 23:02:02 12.9 C 8.34 g/m*3 12.9 C 0 km/h
117 13-01-2011 23:14:02 12.7 C 8.24 g/m*3 12.7 C 0 km/h
118 13-01-2011 23:26:01 12.7 C 8.24 g/m*3 12.7 C 0 km/h
119 13-01-2011 23:38:02 12.7 C 8.24 g/m*3 12.7 C 0 km/h
120 13-01-2011 23:50:01 12.7 C 8.24 g/m*3 12.7 C 0 km/h
121 14-01-2011 00:02:02 12.7 C 8.24 g/m*3 12.7 C 0 km/h
122 14-01-2011 00:14:02 12.5 C 8.14 g/m*3 12.5 C 0 km/h
123 14-01-2011 00:26:01 12.4 C 8.09 g/m*3 12.4 C 0 km/h
124 14-01-2011 00:38:02 12.5 C 8.14 g/m*3 12.5 C 0 km/h
125 14-01-2011 00:50:01 12.7 C 8.13 g/m*3 12.7 C 0 km/h
Sensor: Nr:Datum:Temp:Abs-Feuchte:Windchill:Wind:
Aussen-T/F 126 14-01-2011 01:02:02 12.5 C 8.14 g/m*3 12.5 C 0 km/h
127 14-01-2011 01:14:02 12.4 C 8.09 g/m*3 12.4 C 0 km/h
128 14-01-2011 01:26:01 12.5 C 8.14 g/m*3 12.5 C 0 km/h
129 14-01-2011 01:38:02 12.6 C 8.08 g/m*3 12.6 C 0 km/h
130 14-01-2011 01:50:01 12.5 C 8.03 g/m*3 12.5 C 0 km/h
131 14-01-2011 02:02:02 12.4 C 7.98 g/m*3 12.4 C 0 km/h
132 14-01-2011 02:14:02 12.3 C 7.93 g/m*3 12.3 C 0 km/h
133 14-01-2011 02:26:01 12.3 C 7.93 g/m*3 12.3 C 0 km/h
134 14-01-2011 02:38:01 12.3 C 7.93 g/m*3 12.3 C 0 km/h
135 14-01-2011 02:50:01 12.4 C 7.98 g/m*3 12.4 C 0 km/h
136 14-01-2011 03:02:01 12.2 C 7.88 g/m*3 12.2 C 0 km/h
137 14-01-2011 03:14:01 12.4 C 7.98 g/m*3 12.4 C 0 km/h
138 14-01-2011 03:26:02 12.2 C 7.77 g/m*3 12.2 C 0 km/h
139 14-01-2011 03:38:01 12.2 C 7.77 g/m*3 12.2 C 0 km/h
140 14-01-2011 03:50:01 12.2 C 7.77 g/m*3 12.2 C 0 km/h
141 14-01-2011 04:02:02 12.2 C 7.77 g/m*3 12.2 C 0 km/h
142 14-01-2011 04:14:02 12.2 C 7.88 g/m*3 12.2 C 0 km/h
143 14-01-2011 04:26:01 12.4 C 7.87 g/m*3 12.4 C 0 km/h
144 14-01-2011 04:38:01 12.2 C 7.77 g/m*3 12.2 C 0 km/h
145 14-01-2011 04:50:01 12.2 C 7.77 g/m*3 12.2 C 0 km/h
146 14-01-2011 05:02:01 12.1 C 7.83 g/m*3 12.1 C 0 km/h
147 14-01-2011 05:14:01 12.1 C 7.83 g/m*3 12.1 C 0 km/h
148 14-01-2011 05:26:01 12.3 C 7.82 g/m*3 12.3 C 0 km/h
149 14-01-2011 05:38:01 12.5 C 7.81 g/m*3 12.5 C 0 km/h
150 14-01-2011 05:50:01 12.3 C 7.71 g/m*3 12.3 C 0 km/h
Sensor: Nr:Datum:Temp:Abs-Feuchte:Windchill:Wind:
Aussen-T/F 151 14-01-2011 06:02:01 12.4 C 7.65 g/m*3 12.4 C 0 km/h
152 14-01-2011 06:14:01 12.6 C 7.63 g/m*3 12.6 C 0 km/h
153 14-01-2011 06:26:02 12.5 C 7.59 g/m*3 12.5 C 0 km/h
154 14-01-2011 06:38:01 12.7 C 7.57 g/m*3 12.7 C 0 km/h
155 14-01-2011 06:50:02 12.6 C 7.63 g/m*3 12.6 C 0 km/h
156 14-01-2011 07:02:01 12.3 C 7.6 g/m*3 12.3 C 0 km/h
157 14-01-2011 07:14:01 12.3 C 7.49 g/m*3 12.3 C 0 km/h
158 14-01-2011 07:26:02 12.4 C 7.43 g/m*3 12.4 C 0 km/h
159 14-01-2011 07:38:01 12.2 C 7.12 g/m*3 12.2 C 0 km/h
160 14-01-2011 07:50:01 12.3 C 7.17 g/m*3 12.3 C 0 km/h
161 14-01-2011 08:02:01 12.1 C 7.08 g/m*3 12.1 C 0 km/h
162 14-01-2011 08:14:01 12.2 C 7.01 g/m*3 12.2 C 0 km/h
163 14-01-2011 08:26:02 11.7 C 7.01 g/m*3 11.7 C 0 km/h
164 14-01-2011 08:38:01 11.2 C 6.89 g/m*3 11.2 C 0 km/h
165 14-01-2011 08:50:02 11.1 C 6.95 g/m*3 11.1 C 0 km/h
166 14-01-2011 09:02:01 11.2 C 6.99 g/m*3 11.2 C 0 km/h
167 14-01-2011 09:14:01 11.4 C 6.77 g/m*3 11.4 C 0 km/h
168 14-01-2011 09:26:01 11.6 C 6.86 g/m*3 11.6 C 0 km/h
169 14-01-2011 09:38:01 11.6 C 6.76 g/m*3 11.6 C 0 km/h
170 14-01-2011 09:50:01 11.5 C 6.82 g/m*3 11.5 C 0 km/h
171 14-01-2011 10:02:01 11.8 C 6.84 g/m*3 11.8 C 0 km/h
172 14-01-2011 10:14:01 11.9 C 6.78 g/m*3 11.9 C 0 km/h
173 14-01-2011 10:26:01 11.9 C 6.78 g/m*3 11.9 C 0 km/h
174 14-01-2011 10:38:02 11.3 C 6.53 g/m*3 11.3 C 0 km/h
175 14-01-2011 10:50:01 11.8 C 6.63 g/m*3 11.8 C 0 km/h
Sensor: Nr:Datum:Temp:Abs-Feuchte:Windchill:Wind:
Aussen-T/F 176 14-01-2011 11:02:02 12 C 6.61 g/m*3 12 C 0 km/h
177 14-01-2011 11:14:02 11.9 C 6.67 g/m*3 11.9 C 0 km/h
178 14-01-2011 11:26:01 12 C 6.61 g/m*3 12 C 0 km/h
179 14-01-2011 11:38:02 12 C 6.61 g/m*3 12 C 0 km/h
180 14-01-2011 11:50:01 12.2 C 6.58 g/m*3 12.2 C 0 km/h
181 14-01-2011 12:02:01 12 C 6.5 g/m*3 12 C 0 km/h
182 14-01-2011 12:14:02 12.2 C 6.58 g/m*3 12.2 C 0 km/h
183 14-01-2011 12:26:01 12.3 C 6.52 g/m*3 12.3 C 0 km/h
184 14-01-2011 12:38:01 12.2 C 6.58 g/m*3 12.2 C 0 km/h
185 14-01-2011 12:50:01 12 C 6.5 g/m*3 12 C 0 km/h
186 14-01-2011 13:02:01 12 C 6.61 g/m*3 12 C 0 km/h
187 14-01-2011 13:14:01 12 C 6.71 g/m*3 12 C 0 km/h
188 14-01-2011 13:26:02 12 C 6.61 g/m*3 12 C 0 km/h
189 14-01-2011 13:38:01 12 C 6.61 g/m*3 12 C 0 km/h
190 14-01-2011 13:50:02 12 C 6.61 g/m*3 12 C 0 km/h
191 14-01-2011 14:02:01 11.8 C 6.74 g/m*3 11.8 C 0 km/h
192 14-01-2011 14:14:01 11.7 C 6.8 g/m*3 11.7 C 0 km/h
193 14-01-2011 14:26:02 11.6 C 6.86 g/m*3 11.6 C 0 km/h
194 14-01-2011 14:38:01 11.5 C 6.82 g/m*3 11.5 C 0 km/h
195 14-01-2011 14:50:02 11.6 C 6.86 g/m*3 11.6 C 0 km/h
196 14-01-2011 15:02:01 11.8 C 6.74 g/m*3 11.8 C 0 km/h
197 14-01-2011 15:14:01 12 C 6.61 g/m*3 12 C 0 km/h
198 14-01-2011 15:26:01 12.2 C 6.47 g/m*3 12.2 C 0 km/h
199 14-01-2011 15:38:02 12.4 C 6.45 g/m*3 12.4 C 0 km/h
200 14-01-2011 15:50:01 12.2 C 6.47 g/m*3 12.2 C 0 km/h
Sensor: Nr:Datum:Temp:Abs-Feuchte:Windchill:Wind:
Aussen-T/F 201 14-01-2011 16:02:02 12.2 C 6.37 g/m*3 12.2 C 0 km/h
202 14-01-2011 16:14:02 12.1 C 6.43 g/m*3 12.1 C 0 km/h
203 14-01-2011 16:26:01 12 C 6.39 g/m*3 12 C 0 km/h
204 14-01-2011 16:38:01 11.9 C 6.46 g/m*3 11.9 C 0 km/h
205 14-01-2011 16:50:01 11.6 C 6.34 g/m*3 11.6 C 0 km/h
206 14-01-2011 17:02:01 11.6 C 6.34 g/m*3 11.6 C 0 km/h
207 14-01-2011 17:14:01 11.6 C 6.44 g/m*3 11.6 C 0 km/h
208 14-01-2011 17:26:01 11.5 C 6.3 g/m*3 11.5 C 0 km/h
209 14-01-2011 17:38:01 11.5 C 6.3 g/m*3 11.5 C 0 km/h
210 14-01-2011 17:50:01 11.4 C 6.26 g/m*3 11.4 C 0 km/h
211 14-01-2011 18:02:01 11.2 C 6.28 g/m*3 11.2 C 0 km/h
212 14-01-2011 18:14:01 11 C 6.31 g/m*3 11 C 0 km/h
213 14-01-2011 18:26:02 11.3 C 6.32 g/m*3 11.3 C 0 km/h
214 14-01-2011 18:38:01 10.8 C 6.33 g/m*3 10.8 C 0 km/h
215 14-01-2011 18:50:02 10.9 C 6.37 g/m*3 10.9 C 0 km/h
216 14-01-2011 19:02:01 10.8 C 6.33 g/m*3 10.8 C 0 km/h
217 14-01-2011 19:14:01 10.7 C 6.29 g/m*3 10.7 C 0 km/h
218 14-01-2011 19:26:01 11 C 6.21 g/m*3 11 C 0 km/h
219 14-01-2011 19:38:01 11.3 C 6.22 g/m*3 11.3 C 0 km/h
220 14-01-2011 19:50:01 11.9 C 6.14 g/m*3 11.9 C 0 km/h
221 14-01-2011 20:02:01 11.9 C 6.04 g/m*3 11.9 C 0 km/h
222 14-01-2011 20:14:01 11.8 C 6.1 g/m*3 11.8 C 0 km/h
223 14-01-2011 20:26:01 11.8 C 6.1 g/m*3 11.8 C 0 km/h
224 14-01-2011 20:38:02 11.5 C 6.09 g/m*3 11.5 C 0 km/h
225 14-01-2011 20:50:01 11.4 C 6.06 g/m*3 11.4 C 0 km/h
Sensor: Nr:Datum:Temp:Abs-Feuchte:Windchill:Wind:
Aussen-T/F 226 14-01-2011 21:02:02 11.4 C 6.06 g/m*3 11.4 C 0 km/h
227 14-01-2011 21:14:02 11.4 C 5.95 g/m*3 11.4 C 0 km/h
228 14-01-2011 21:26:01 11.4 C 6.06 g/m*3 11.4 C 0 km/h
229 14-01-2011 21:38:01 11.4 C 5.95 g/m*3 11.4 C 0 km/h
230 14-01-2011 21:50:01 11.4 C 6.06 g/m*3 11.4 C 0 km/h
231 14-01-2011 22:04:03 11.2 C 6.08 g/m*3 11.2 C 0 km/h
232 14-01-2011 22:16:03 11.1 C 6.14 g/m*3 11.1 C 0 km/h
233 14-01-2011 22:28:03 11.1 C 6.25 g/m*3 11.1 C 0 km/h
234 14-01-2011 22:40:03 10.6 C 6.34 g/m*3 10.6 C 0 km/h
235 14-01-2011 22:52:03 10.1 C 6.43 g/m*3 10.1 C 0 km/h
236 14-01-2011 23:04:03 10 C 6.58 g/m*3 10 C 0 km/h
237 14-01-2011 23:16:03 9.5 C 6.74 g/m*3 9.5 C 0 km/h
238 14-01-2011 23:28:03 9.1 C 6.92 g/m*3 9.1 C 0 km/h
239 14-01-2011 23:40:03 9.1 C 6.92 g/m*3 9.1 C 0 km/h
240 14-01-2011 23:52:03 8.5 C 6.66 g/m*3 8.5 C 0 km/h
241 15-01-2011 00:04:03 8.3 C 6.74 g/m*3 8.3 C 0 km/h
242 15-01-2011 00:16:03 8 C 6.7 g/m*3 8 C 0 km/h
243 15-01-2011 00:28:03 8.5 C 6.74 g/m*3 8.5 C 0 km/h
244 15-01-2011 00:40:03 8.1 C 6.49 g/m*3 8.1 C 0 km/h
245 15-01-2011 00:52:03 8.2 C 6.53 g/m*3 8.2 C 0 km/h
246 15-01-2011 01:04:03 8.1 C 6.49 g/m*3 8.1 C 0 km/h
247 15-01-2011 01:16:03 8.3 C 6.49 g/m*3 8.3 C 0 km/h
248 15-01-2011 01:28:03 8.5 C 6.32 g/m*3 8.5 C 0 km/h
249 15-01-2011 01:40:03 8.2 C 6.36 g/m*3 8.2 C 0 km/h
250 15-01-2011 01:52:03 8 C 6.37 g/m*3 8 C 0 km/h
Sensor: Nr:Datum:Temp:Abs-Feuchte:Windchill:Wind:
Aussen-T/F 251 15-01-2011 02:04:04 8.4 C 6.45 g/m*3 8.4 C 0 km/h
252 15-01-2011 02:16:04 8.3 C 6.41 g/m*3 8.3 C 0 km/h
253 15-01-2011 02:28:04 8.1 C 6.32 g/m*3 8.1 C 0 km/h
254 15-01-2011 02:40:04 7.6 C 6.36 g/m*3 7.6 C 0 km/h
255 15-01-2011 02:52:04 7.8 C 6.61 g/m*3 7.8 C 0 km/h
256 15-01-2011 03:04:04 8 C 6.45 g/m*3 8 C 0 km/h
257 15-01-2011 03:16:04 8.1 C 6.41 g/m*3 8.1 C 0 km/h
258 15-01-2011 03:28:04 8.4 C 6.62 g/m*3 8.4 C 0 km/h
259 15-01-2011 03:40:04 8.1 C 6.41 g/m*3 8.1 C 0 km/h
260 15-01-2011 03:52:04 8 C 6.45 g/m*3 8 C 0 km/h
261 15-01-2011 04:04:04 7.8 C 6.45 g/m*3 7.8 C 0 km/h
262 15-01-2011 04:16:04 8 C 6.53 g/m*3 8 C 0 km/h
263 15-01-2011 04:28:04 8.2 C 6.36 g/m*3 8.2 C 0 km/h
264 15-01-2011 04:40:04 8.7 C 6.4 g/m*3 8.7 C 0 km/h
265 15-01-2011 04:52:04 8.4 C 6.28 g/m*3 8.4 C 0 km/h
266 15-01-2011 05:04:04 8.3 C 6.15 g/m*3 8.3 C 0 km/h
267 15-01-2011 05:16:04 8.1 C 6.07 g/m*3 8.1 C 0 km/h
268 15-01-2011 05:28:04 7.7 C 6.24 g/m*3 7.7 C 0 km/h
269 15-01-2011 05:40:04 8 C 6.12 g/m*3 8 C 0 km/h
270 15-01-2011 05:52:04 7.7 C 6.08 g/m*3 7.7 C 0 km/h
271 15-01-2011 06:04:05 7.5 C 6.24 g/m*3 7.5 C 0 km/h
272 15-01-2011 06:16:05 6.9 C 6.24 g/m*3 6.9 C 0 km/h
273 15-01-2011 06:28:05 7.3 C 6.24 g/m*3 7.3 C 0 km/h
274 15-01-2011 06:40:05 7.6 C 6.2 g/m*3 7.6 C 0 km/h
275 15-01-2011 06:52:05 7.9 C 6.16 g/m*3 7.9 C 0 km/h
Sensor: Nr:Datum:Temp:Abs-Feuchte:Windchill:Wind:
Aussen-T/F 276 15-01-2011 07:04:05 7.1 C 6.01 g/m*3 7.1 C 0 km/h
277 15-01-2011 07:16:05 7.3 C 6.24 g/m*3 7.3 C 0 km/h
278 15-01-2011 07:28:05 7 C 6.2 g/m*3 7 C 0 km/h
279 15-01-2011 07:40:05 7 C 6.12 g/m*3 7 C 0 km/h
280 15-01-2011 07:52:05 7 C 6.12 g/m*3 7 C 0 km/h
281 15-01-2011 08:04:02 7 C 6.12 g/m*3 7 C 0 km/h
282 15-01-2011 08:16:03 7.1 C 6.08 g/m*3 7.1 C 0 km/h
283 15-01-2011 08:28:03 8 C 6.28 g/m*3 8 C 0 km/h
284 15-01-2011 08:40:02 8 C 6.04 g/m*3 8 C 0 km/h
285 15-01-2011 08:52:03 8.3 C 6.15 g/m*3 8.3 C 0 km/h
286 15-01-2011 09:04:02 8.2 C 5.95 g/m*3 8.2 C 0 km/h
287 15-01-2011 09:16:02 7.9 C 5.91 g/m*3 7.9 C 0 km/h
288 15-01-2011 09:28:02 8.2 C 6.03 g/m*3 8.2 C 0 km/h
289 15-01-2011 09:40:02 8.5 C 5.98 g/m*3 8.5 C 0 km/h
290 15-01-2011 09:52:02 8.7 C 6.05 g/m*3 8.7 C 0 km/h
291 15-01-2011 10:04:01 9.1 C 5.94 g/m*3 9.1 C 0 km/h
292 15-01-2011 10:16:02 8.9 C 5.96 g/m*3 8.9 C 0 km/h
293 15-01-2011 10:28:02 9 C 5.91 g/m*3 9 C 0 km/h
294 15-01-2011 10:40:02 9.1 C 5.86 g/m*3 9.1 C 0 km/h
295 15-01-2011 10:52:02 9.2 C 5.89 g/m*3 9.2 C 0 km/h
296 15-01-2011 11:04:02 9.4 C 5.97 g/m*3 9.4 C 0 km/h
297 15-01-2011 11:16:02 9.5 C 6.01 g/m*3 9.5 C 0 km/h
298 15-01-2011 11:28:02 10.1 C 5.96 g/m*3 10.1 C 0 km/h
299 15-01-2011 11:40:02 10.1 C 5.77 g/m*3 10.1 C 0 km/h
300 15-01-2011 11:52:02 10.2 C 5.71 g/m*3 10.2 C 0 km/h
Sensor: Nr:Datum:Temp:Abs-Feuchte:Windchill:Wind:
Aussen-T/F 301 15-01-2011 12:04:02 10.2 C 5.8 g/m*3 10.2 C 0 km/h
302 15-01-2011 12:16:03 10.2 C 5.71 g/m*3 10.2 C 0 km/h
303 15-01-2011 12:28:03 10.3 C 5.75 g/m*3 10.3 C 0 km/h
304 15-01-2011 12:40:02 10.2 C 5.71 g/m*3 10.2 C 0 km/h
305 15-01-2011 12:52:01 10.1 C 5.67 g/m*3 10.1 C 0 km/h
306 15-01-2011 13:04:01 10.1 C 5.58 g/m*3 10.1 C 0 km/h
307 15-01-2011 13:16:02 10 C 5.64 g/m*3 10 C 0 km/h
308 15-01-2011 13:28:02 10 C 5.54 g/m*3 10 C 0 km/h
309 15-01-2011 13:40:01 10 C 5.54 g/m*3 10 C 0 km/h
310 15-01-2011 13:52:01 10.1 C 5.58 g/m*3 10.1 C 0 km/h
311 15-01-2011 14:04:01 10.2 C 5.61 g/m*3 10.2 C 0 km/h
312 15-01-2011 14:16:02 10 C 5.54 g/m*3 10 C 0 km/h
313 15-01-2011 14:28:02 10 C 5.54 g/m*3 10 C 0 km/h
314 15-01-2011 14:40:01 10 C 5.54 g/m*3 10 C 0 km/h
315 15-01-2011 14:52:01 10 C 5.45 g/m*3 10 C 0 km/h
316 15-01-2011 15:04:01 9.9 C 5.42 g/m*3 9.9 C 0 km/h
317 15-01-2011 15:16:02 9.8 C 5.57 g/m*3 9.8 C 0 km/h
318 15-01-2011 15:28:02 9.6 C 5.5 g/m*3 9.6 C 0 km/h
319 15-01-2011 15:40:01 9.7 C 5.53 g/m*3 9.7 C 0 km/h
320 15-01-2011 15:52:02 9.1 C 5.59 g/m*3 9.1 C 0 km/h
321 15-01-2011 16:04:02 8.8 C 5.83 g/m*3 8.8 C 0 km/h
322 15-01-2011 16:16:03 8.7 C 5.71 g/m*3 8.7 C 0 km/h
323 15-01-2011 16:28:03 8.9 C 5.69 g/m*3 8.9 C 0 km/h
324 15-01-2011 16:40:02 8.9 C 5.69 g/m*3 8.9 C 0 km/h
325 15-01-2011 16:52:02 9.2 C 5.63 g/m*3 9.2 C 0 km/h
Sensor: Nr:Datum:Temp:Abs-Feuchte:Windchill:Wind:
Aussen-T/F 326 15-01-2011 17:04:01 8.7 C 5.79 g/m*3 8.7 C 0 km/h
327 15-01-2011 17:16:01 9.1 C 5.59 g/m*3 9.1 C 0 km/h
328 15-01-2011 17:28:01 9.2 C 5.54 g/m*3 9.2 C 0 km/h
329 15-01-2011 17:40:02 9 C 5.64 g/m*3 9 C 0 km/h
330 15-01-2011 17:52:03 9.1 C 5.68 g/m*3 9.1 C 0 km/h
331 15-01-2011 18:04:03 9.2 C 5.71 g/m*3 9.2 C 0 km/h
332 15-01-2011 18:16:01 9.1 C 5.68 g/m*3 9.1 C 0 km/h
333 15-01-2011 18:28:01 9 C 5.82 g/m*3 9 C 0 km/h
334 15-01-2011 18:40:02 9 C 5.82 g/m*3 9 C 0 km/h
335 15-01-2011 18:52:02 8.6 C 5.84 g/m*3 8.6 C 0 km/h
336 15-01-2011 19:04:02 9.1 C 5.77 g/m*3 9.1 C 0 km/h
337 15-01-2011 19:16:02 9.3 C 5.66 g/m*3 9.3 C 0 km/h
338 15-01-2011 19:28:02 9.1 C 5.59 g/m*3 9.1 C 0 km/h
339 15-01-2011 19:40:02 9.3 C 5.75 g/m*3 9.3 C 0 km/h
340 15-01-2011 19:52:01 9.1 C 5.68 g/m*3 9.1 C 0 km/h
341 15-01-2011 20:04:01 9.4 C 5.7 g/m*3 9.4 C 0 km/h
342 15-01-2011 20:16:02 9.1 C 5.59 g/m*3 9.1 C 0 km/h
343 15-01-2011 20:28:02 8.6 C 5.67 g/m*3 8.6 C 0 km/h
344 15-01-2011 20:40:01 8.9 C 5.69 g/m*3 8.9 C 0 km/h
345 15-01-2011 20:52:01 8.6 C 5.76 g/m*3 8.6 C 0 km/h
346 15-01-2011 21:04:01 8.2 C 5.53 g/m*3 8.2 C 0 km/h
347 15-01-2011 21:16:02 8.1 C 5.57 g/m*3 8.1 C 0 km/h
348 15-01-2011 21:28:02 8 C 5.54 g/m*3 8 C 0 km/h
349 15-01-2011 21:40:01 7.8 C 5.71 g/m*3 7.8 C 0 km/h
350 15-01-2011 21:52:01 8.1 C 5.74 g/m*3 8.1 C 0 km/h
Sensor: Nr:Datum:Temp:Abs-Feuchte:Windchill:Wind:
Aussen-T/F 351 15-01-2011 22:04:01 8.3 C 5.82 g/m*3 8.3 C 0 km/h
352 15-01-2011 22:16:02 8.5 C 5.98 g/m*3 8.5 C 0 km/h
353 15-01-2011 22:28:02 8.9 C 5.96 g/m*3 8.9 C 0 km/h
354 15-01-2011 22:41:03 8.6 C 5.84 g/m*3 8.6 C 0 km/h
355 15-01-2011 22:53:03 8.7 C 5.88 g/m*3 8.7 C 0 km/h
356 15-01-2011 23:05:03 8.5 C 5.89 g/m*3 8.5 C 0 km/h
357 15-01-2011 23:17:03 8.2 C 5.86 g/m*3 8.2 C 0 km/h
358 15-01-2011 23:29:03 8.7 C 5.88 g/m*3 8.7 C 0 km/h
359 15-01-2011 23:41:03 8.8 C 5.92 g/m*3 8.8 C 0 km/h
360 15-01-2011 23:53:03 8.9 C 5.87 g/m*3 8.9 C 0 km/h
361 16-01-2011 00:05:03 8.7 C 5.97 g/m*3 8.7 C 0 km/h
362 16-01-2011 00:17:03 8.8 C 5.92 g/m*3 8.8 C 0 km/h
363 16-01-2011 00:29:03 9 C 5.82 g/m*3 9 C 0 km/h
364 16-01-2011 00:41:03 9 C 5.73 g/m*3 9 C 0 km/h
365 16-01-2011 00:53:04 9 C 5.73 g/m*3 9 C 0 km/h
366 16-01-2011 01:05:04 8.5 C 5.64 g/m*3 8.5 C 0 km/h
367 16-01-2011 01:17:04 8.6 C 5.76 g/m*3 8.6 C 0 km/h
368 16-01-2011 01:29:04 8 C 5.7 g/m*3 8 C 0 km/h
369 16-01-2011 01:41:04 8 C 5.7 g/m*3 8 C 0 km/h
370 16-01-2011 01:53:04 8.1 C 5.66 g/m*3 8.1 C 0 km/h
371 16-01-2011 02:05:04 8.1 C 5.66 g/m*3 8.1 C 0 km/h
372 16-01-2011 02:17:04 7.8 C 5.71 g/m*3 7.8 C 0 km/h
373 16-01-2011 02:29:04 7.8 C 5.79 g/m*3 7.8 C 0 km/h
374 16-01-2011 02:41:04 7.8 C 5.88 g/m*3 7.8 C 0 km/h
375 16-01-2011 02:53:04 8.3 C 5.82 g/m*3 8.3 C 0 km/h
Sensor: Nr:Datum:Temp:Abs-Feuchte:Windchill:Wind:
Aussen-T/F 376 16-01-2011 03:05:04 8.4 C 5.77 g/m*3 8.4 C 0 km/h
377 16-01-2011 03:17:04 8.3 C 5.65 g/m*3 8.3 C 0 km/h
378 16-01-2011 03:29:04 8.2 C 5.69 g/m*3 8.2 C 0 km/h
379 16-01-2011 03:41:04 7.8 C 5.71 g/m*3 7.8 C 0 km/h
380 16-01-2011 03:53:04 8 C 5.7 g/m*3 8 C 0 km/h
381 16-01-2011 04:05:04 7.9 C 5.75 g/m*3 7.9 C 0 km/h
382 16-01-2011 04:17:04 8.2 C 5.78 g/m*3 8.2 C 0 km/h
383 16-01-2011 04:29:04 8.5 C 5.72 g/m*3 8.5 C 0 km/h
384 16-01-2011 04:41:04 8.4 C 5.77 g/m*3 8.4 C 0 km/h
385 16-01-2011 04:53:05 8.1 C 5.74 g/m*3 8.1 C 0 km/h
386 16-01-2011 05:05:05 7.9 C 5.83 g/m*3 7.9 C 0 km/h
387 16-01-2011 05:17:05 7.3 C 5.85 g/m*3 7.3 C 0 km/h
388 16-01-2011 05:29:05 6.8 C 5.97 g/m*3 6.8 C 0 km/h
389 16-01-2011 05:41:05 7 C 6.12 g/m*3 7 C 0 km/h
390 16-01-2011 05:53:05 6.8 C 6.12 g/m*3 6.8 C 0 km/h
391 16-01-2011 06:05:05 7 C 6.2 g/m*3 7 C 0 km/h
392 16-01-2011 06:17:05 7.1 C 6.16 g/m*3 7.1 C 0 km/h
393 16-01-2011 06:29:05 7.5 C 6.16 g/m*3 7.5 C 0 km/h
394 16-01-2011 06:41:05 7 C 5.89 g/m*3 7 C 0 km/h
395 16-01-2011 06:53:05 6.7 C 6 g/m*3 6.7 C 0 km/h
396 16-01-2011 07:05:05 7.5 C 6.16 g/m*3 7.5 C 0 km/h
397 16-01-2011 07:17:05 7.8 C 6.12 g/m*3 7.8 C 0 km/h
398 16-01-2011 07:29:05 7.9 C 6.08 g/m*3 7.9 C 0 km/h
399 16-01-2011 07:41:05 7.8 C 6.04 g/m*3 7.8 C 0 km/h
400 16-01-2011 07:53:05 8.4 C 5.94 g/m*3 8.4 C 0 km/h
Sensor: Nr:Datum:Temp:Abs-Feuchte:Windchill:Wind:
Aussen-T/F 401 16-01-2011 08:05:05 8.2 C 5.86 g/m*3 8.2 C 0 km/h
402 16-01-2011 08:17:05 8.3 C 5.9 g/m*3 8.3 C 0 km/h
403 16-01-2011 08:29:05 8.3 C 5.82 g/m*3 8.3 C 0 km/h
404 16-01-2011 08:41:05 8.1 C 5.82 g/m*3 8.1 C 0 km/h
405 16-01-2011 08:53:05 8.2 C 5.95 g/m*3 8.2 C 0 km/h
406 16-01-2011 09:05:02 8.3 C 5.98 g/m*3 8.3 C 0 km/h
407 16-01-2011 09:17:02 8 C 5.87 g/m*3 8 C 0 km/h
408 16-01-2011 09:29:02 8 C 5.87 g/m*3 8 C 0 km/h
409 16-01-2011 09:41:02 8 C 5.87 g/m*3 8 C 0 km/h
410 16-01-2011 09:53:01 7.9 C 5.91 g/m*3 7.9 C 0 km/h
411 16-01-2011 10:05:02 7.9 C 5.91 g/m*3 7.9 C 0 km/h
412 16-01-2011 10:17:01 7.9 C 5.91 g/m*3 7.9 C 0 km/h
413 16-01-2011 10:29:01 7.9 C 5.91 g/m*3 7.9 C 0 km/h
414 16-01-2011 10:41:01 8 C 5.95 g/m*3 8 C 0 km/h
415 16-01-2011 10:53:01 8.2 C 5.86 g/m*3 8.2 C 0 km/h
416 16-01-2011 11:05:02 8.1 C 5.91 g/m*3 8.1 C 0 km/h
417 16-01-2011 11:17:01 8.1 C 5.91 g/m*3 8.1 C 0 km/h
418 16-01-2011 11:29:01 8.3 C 5.98 g/m*3 8.3 C 0 km/h
419 16-01-2011 11:41:02 8.6 C 6.1 g/m*3 8.6 C 0 km/h
420 16-01-2011 11:53:01 8.7 C 6.05 g/m*3 8.7 C 0 km/h
421 16-01-2011 12:05:02 8.6 C 6.1 g/m*3 8.6 C 0 km/h
422 16-01-2011 12:17:01 8.6 C 6.19 g/m*3 8.6 C 0 km/h
423 16-01-2011 12:29:01 8.6 C 6.19 g/m*3 8.6 C 0 km/h
424 16-01-2011 12:41:02 8.7 C 6.14 g/m*3 8.7 C 0 km/h
425 16-01-2011 12:53:01 8.7 C 6.14 g/m*3 8.7 C 0 km/h
Sensor: Nr:Datum:Temp:Abs-Feuchte:Windchill:Wind:
Aussen-T/F 426 16-01-2011 13:05:02 8.9 C 6.22 g/m*3 8.9 C 0 km/h
427 16-01-2011 13:17:02 8.9 C 6.22 g/m*3 8.9 C 0 km/h
428 16-01-2011 13:29:02 8.8 C 6.18 g/m*3 8.8 C 0 km/h
429 16-01-2011 13:41:01 8.7 C 6.14 g/m*3 8.7 C 0 km/h
430 16-01-2011 13:53:02 8.8 C 6.18 g/m*3 8.8 C 0 km/h
431 16-01-2011 14:05:01 8.6 C 6.1 g/m*3 8.6 C 0 km/h
432 16-01-2011 14:17:02 7.8 C 6.04 g/m*3 7.8 C 0 km/h
433 16-01-2011 14:29:02 7.5 C 6.24 g/m*3 7.5 C 0 km/h
434 16-01-2011 14:41:01 8.7 C 6.57 g/m*3 8.7 C 0 km/h
435 16-01-2011 14:53:02 9.7 C 6.36 g/m*3 9.7 C 0 km/h
436 16-01-2011 15:05:01 9.9 C 6.26 g/m*3 9.9 C 0 km/h
437 16-01-2011 15:17:02 10 C 6.11 g/m*3 10 C 0 km/h
438 16-01-2011 15:29:02 10 C 6.11 g/m*3 10 C 0 km/h
439 16-01-2011 15:41:01 9.9 C 6.26 g/m*3 9.9 C 0 km/h
440 16-01-2011 15:53:02 9.8 C 6.4 g/m*3 9.8 C 0 km/h
441 16-01-2011 16:05:02 9.3 C 6.38 g/m*3 9.3 C 0 km/h
442 16-01-2011 16:17:02 8.7 C 6.4 g/m*3 8.7 C 0 km/h
443 16-01-2011 16:29:02 8 C 6.28 g/m*3 8 C 0 km/h
444 16-01-2011 16:41:02 7.4 C 6.36 g/m*3 7.4 C 0 km/h
445 16-01-2011 16:53:02 6.8 C 6.27 g/m*3 6.8 C 0 km/h
446 16-01-2011 17:05:01 6.3 C 6.14 g/m*3 6.3 C 0 km/h
447 16-01-2011 17:17:02 6.2 C 6.18 g/m*3 6.2 C 0 km/h
448 16-01-2011 17:29:02 6 C 6.17 g/m*3 6 C 0 km/h
449 16-01-2011 17:41:02 5.6 C 6.08 g/m*3 5.6 C 0 km/h
450 16-01-2011 17:53:02 5.5 C 6.11 g/m*3 5.5 C 0 km/h
Sensor: Nr:Datum:Temp:Abs-Feuchte:Windchill:Wind:
Aussen-T/F 451 16-01-2011 18:05:03 5.1 C 5.95 g/m*3 5.1 C 0 km/h
452 16-01-2011 18:17:02 5 C 5.91 g/m*3 5 C 0 km/h
453 16-01-2011 18:29:02 4.8 C 5.9 g/m*3 4.8 C 0 km/h
454 16-01-2011 18:41:02 4.7 C 5.93 g/m*3 4.7 C 0 km/h
455 16-01-2011 18:53:02 4.6 C 5.89 g/m*3 4.6 C 0 km/h
456 16-01-2011 19:05:01 4.5 C 5.85 g/m*3 4.5 C 0 km/h
457 16-01-2011 19:17:02 4.4 C 5.81 g/m*3 4.4 C 0 km/h
458 16-01-2011 19:29:03 4.4 C 5.81 g/m*3 4.4 C 0 km/h
459 16-01-2011 19:41:01 3.9 C 5.68 g/m*3 3.9 C 0 km/h
460 16-01-2011 19:53:02 3.9 C 5.68 g/m*3 3.9 C 0 km/h
461 16-01-2011 20:05:02 3.4 C 5.5 g/m*3 3.4 C 0 km/h
462 16-01-2011 20:17:02 3.7 C 5.61 g/m*3 3.7 C 0 km/h
463 16-01-2011 20:29:02 3.5 C 5.53 g/m*3 3.5 C 0 km/h
464 16-01-2011 20:41:03 2.9 C 5.37 g/m*3 2.9 C 0 km/h
465 16-01-2011 20:53:02 2.8 C 5.34 g/m*3 2.8 C 0 km/h
466 16-01-2011 21:05:01 2.7 C 5.3 g/m*3 2.7 C 0 km/h
467 16-01-2011 21:17:02 2.2 C 5.13 g/m*3 2.2 C 0 km/h
468 16-01-2011 21:29:02 2.7 C 5.3 g/m*3 2.7 C 0 km/h
469 16-01-2011 21:41:02 2.2 C 5.13 g/m*3 2.2 C 0 km/h
470 16-01-2011 21:53:02 2.2 C 5.13 g/m*3 2.2 C 0 km/h
471 16-01-2011 22:06:04 1.8 C 5.04 g/m*3 1.8 C 0 km/h
472 16-01-2011 22:18:04 2.8 C 5.4 g/m*3 2.8 C 0 km/h
473 16-01-2011 22:30:04 1.9 C 5.08 g/m*3 1.9 C 0 km/h
474 16-01-2011 22:42:04 2.1 C 5.09 g/m*3 2.1 C 0 km/h
475 16-01-2011 22:54:04 2.2 C 5.18 g/m*3 2.2 C 0 km/h
Sensor: Nr:Datum:Temp:Abs-Feuchte:Windchill:Wind:
Aussen-T/F 476 16-01-2011 23:06:04 2.1 C 5.15 g/m*3 2.1 C 0 km/h
477 16-01-2011 23:18:04 1.5 C 4.94 g/m*3 1.5 C 0 km/h
478 16-01-2011 23:30:04 1.5 C 4.94 g/m*3 1.5 C 0 km/h
479 16-01-2011 23:42:04 1.1 C 4.81 g/m*3 1.1 C 0 km/h
480 16-01-2011 23:54:04 0.6 C 4.65 g/m*3 0.6 C 0 km/h
481 17-01-2011 00:06:04 1.2 C 4.84 g/m*3 1.2 C 0 km/h
482 17-01-2011 00:18:04 1.6 C 5.03 g/m*3 1.6 C 0 km/h
483 17-01-2011 00:30:04 1.4 C 4.91 g/m*3 1.4 C 0 km/h
484 17-01-2011 00:42:04 1.4 C 4.91 g/m*3 1.4 C 0 km/h
485 17-01-2011 00:54:04 1.4 C 4.96 g/m*3 1.4 C 0 km/h
486 17-01-2011 01:06:04 0.9 C 4.79 g/m*3 0.9 C 0 km/h
487 17-01-2011 01:18:04 1.2 C 4.89 g/m*3 1.2 C 0 km/h
488 17-01-2011 01:30:04 1.5 C 4.99 g/m*3 1.5 C 0 km/h
489 17-01-2011 01:42:04 1.3 C 4.93 g/m*3 1.3 C 0 km/h
490 17-01-2011 01:54:04 1 C 4.78 g/m*3 1 C 0 km/h
491 17-01-2011 02:06:04 0.7 C 4.73 g/m*3 0.7 C 0 km/h
492 17-01-2011 02:18:05 1.5 C 4.99 g/m*3 1.5 C 0 km/h
493 17-01-2011 02:30:05 1.3 C 4.93 g/m*3 1.3 C 0 km/h
494 17-01-2011 02:42:05 1 C 4.83 g/m*3 1 C 0 km/h
495 17-01-2011 02:54:05 1.1 C 4.86 g/m*3 1.1 C 0 km/h
496 17-01-2011 03:06:05 1.4 C 4.96 g/m*3 1.4 C 0 km/h
497 17-01-2011 03:18:05 1.5 C 4.99 g/m*3 1.5 C 0 km/h
498 17-01-2011 03:30:05 0.9 C 4.85 g/m*3 0.9 C 0 km/h
499 17-01-2011 03:42:05 0.9 C 4.85 g/m*3 0.9 C 0 km/h
500 17-01-2011 03:54:05 0.5 C 4.71 g/m*3 0.5 C 0 km/h
Sensor: Nr:Datum:Temp:Abs-Feuchte:Windchill:Wind:
Aussen-T/F 501 17-01-2011 04:06:05 0.2 C 4.57 g/m*3 0.2 C 0 km/h
502 17-01-2011 04:18:05 -0.1 C 4.47 g/m*3 -0.1 C 0 km/h
503 17-01-2011 04:30:05 -0.3 C 4.41 g/m*3 -0.3 C 0 km/h
504 17-01-2011 04:42:05 0.1 C 4.54 g/m*3 0.1 C 0 km/h
505 17-01-2011 04:54:05 -0.1 C 4.47 g/m*3 -0.1 C 0 km/h
506 17-01-2011 05:06:05 0.6 C 4.75 g/m*3 0.6 C 0 km/h
507 17-01-2011 05:18:05 0.5 C 4.71 g/m*3 0.5 C 0 km/h
508 17-01-2011 05:30:05 -0.2 C 4.44 g/m*3 -0.2 C 0 km/h
509 17-01-2011 05:42:05 -0.5 C 4.35 g/m*3 -0.5 C 0 km/h
510 17-01-2011 05:54:05 0 C 4.51 g/m*3 0 C 0 km/h
511 17-01-2011 06:06:05 -0.3 C 4.41 g/m*3 -0.3 C 0 km/h
512 17-01-2011 06:18:06 -0.3 C 4.41 g/m*3 -0.3 C 0 km/h
513 17-01-2011 06:30:06 -0.6 C 4.32 g/m*3 -0.6 C 0 km/h
514 17-01-2011 06:42:06 -1 C 4.2 g/m*3 -1 C 0 km/h
515 17-01-2011 06:54:03 -0.9 C 4.23 g/m*3 -0.9 C 0 km/h
516 17-01-2011 07:06:02 -0.7 C 4.29 g/m*3 -0.7 C 0 km/h
517 17-01-2011 07:18:02 0.2 C 4.62 g/m*3 0.2 C 0 km/h
518 17-01-2011 07:30:02 0 C 4.55 g/m*3 0 C 0 km/h
519 17-01-2011 07:42:02 -0.5 C 4.35 g/m*3 -0.5 C 0 km/h
520 17-01-2011 07:54:02 -1 C 4.2 g/m*3 -1 C 0 km/h
521 17-01-2011 08:06:02 -1 C 4.2 g/m*3 -1 C 0 km/h
522 17-01-2011 08:18:02 -1 C 4.2 g/m*3 -1 C 0 km/h
523 17-01-2011 08:30:02 -1.1 C 4.17 g/m*3 -1.1 C 0 km/h
524 17-01-2011 08:42:03 -0.2 C 4.49 g/m*3 -0.2 C 0 km/h
525 17-01-2011 08:54:01 0 C 4.55 g/m*3 0 C 0 km/h
Sensor: Nr:Datum:Temp:Abs-Feuchte:Windchill:Wind:
Aussen-T/F 526 17-01-2011 09:06:02 0.4 C 4.68 g/m*3 0.4 C 0 km/h
527 17-01-2011 09:18:01 0.7 C 4.78 g/m*3 0.7 C 0 km/h
528 17-01-2011 09:30:01 0.8 C 4.81 g/m*3 0.8 C 0 km/h
529 17-01-2011 09:42:02 0.9 C 4.85 g/m*3 0.9 C 0 km/h
530 17-01-2011 09:54:01 0.8 C 4.81 g/m*3 0.8 C 0 km/h
531 17-01-2011 10:06:02 0.7 C 4.78 g/m*3 0.7 C 0 km/h
532 17-01-2011 10:18:02 0.7 C 4.78 g/m*3 0.7 C 0 km/h
533 17-01-2011 10:30:02 0.4 C 4.68 g/m*3 0.4 C 0 km/h
534 17-01-2011 10:42:01 0.6 C 4.75 g/m*3 0.6 C 0 km/h
535 17-01-2011 10:54:02 1 C 4.88 g/m*3 1 C 0 km/h
536 17-01-2011 11:06:01 1 C 4.88 g/m*3 1 C 0 km/h
537 17-01-2011 11:18:02 1 C 4.88 g/m*3 1 C 0 km/h
538 17-01-2011 11:30:02 1.7 C 5.12 g/m*3 1.7 C 0 km/h
539 17-01-2011 11:42:01 2.9 C 5.55 g/m*3 2.9 C 0 km/h
540 17-01-2011 11:54:02 4.1 C 5.95 g/m*3 4.1 C 0 km/h
541 17-01-2011 12:06:02 5 C 6.32 g/m*3 5 C 0 km/h
542 17-01-2011 12:18:02 4.9 C 6.35 g/m*3 4.9 C 0 km/h
543 17-01-2011 12:30:02 5.4 C 6.49 g/m*3 5.4 C 0 km/h
544 17-01-2011 12:42:03 5.8 C 6.66 g/m*3 5.8 C 0 km/h
545 17-01-2011 12:54:02 6 C 6.68 g/m*3 6 C 0 km/h
546 17-01-2011 13:06:02 6.3 C 6.81 g/m*3 6.3 C 0 km/h
547 17-01-2011 13:18:01 6.3 C 6.74 g/m*3 6.3 C 0 km/h
548 17-01-2011 13:30:01 6 C 6.46 g/m*3 6 C 0 km/h
549 17-01-2011 13:42:02 5.8 C 6.38 g/m*3 5.8 C 0 km/h
550 17-01-2011 13:54:02 5.9 C 6.35 g/m*3 5.9 C 0 km/h
Sensor: Nr:Datum:Temp:Abs-Feuchte:Windchill:Wind:
Aussen-T/F 551 17-01-2011 14:06:02 6 C 6.17 g/m*3 6 C 0 km/h
552 17-01-2011 14:18:02 6.3 C 6.22 g/m*3 6.3 C 0 km/h
553 17-01-2011 14:30:02 6.5 C 6.15 g/m*3 6.5 C 0 km/h
554 17-01-2011 14:42:02 6.6 C 5.96 g/m*3 6.6 C 0 km/h
555 17-01-2011 14:54:02 6.6 C 5.89 g/m*3 6.6 C 0 km/h
556 17-01-2011 15:06:02 6.7 C 5.85 g/m*3 6.7 C 0 km/h
557 17-01-2011 15:18:02 6.5 C 5.92 g/m*3 6.5 C 0 km/h
558 17-01-2011 15:30:02 6.2 C 5.88 g/m*3 6.2 C 0 km/h
559 17-01-2011 15:42:02 5.8 C 5.87 g/m*3 5.8 C 0 km/h
560 17-01-2011 15:54:02 5.7 C 5.98 g/m*3 5.7 C 0 km/h
561 17-01-2011 16:06:03 6.2 C 6.1 g/m*3 6.2 C 0 km/h
562 17-01-2011 16:18:02 5.6 C 5.94 g/m*3 5.6 C 0 km/h
563 17-01-2011 16:30:02 6.1 C 6.06 g/m*3 6.1 C 0 km/h
564 17-01-2011 16:42:02 6.3 C 5.85 g/m*3 6.3 C 0 km/h
565 17-01-2011 16:54:01 6.7 C 5.85 g/m*3 6.7 C 0 km/h
566 17-01-2011 17:06:02 6.4 C 5.74 g/m*3 6.4 C 0 km/h
567 17-01-2011 17:18:01 6.1 C 5.77 g/m*3 6.1 C 0 km/h
568 17-01-2011 17:30:01 6.3 C 5.85 g/m*3 6.3 C 0 km/h
569 17-01-2011 17:42:01 6.2 C 5.88 g/m*3 6.2 C 0 km/h
570 17-01-2011 17:54:01 6 C 5.88 g/m*3 6 C 0 km/h
571 17-01-2011 18:06:02 5.9 C 5.98 g/m*3 5.9 C 0 km/h
572 17-01-2011 18:18:02 6 C 6.02 g/m*3 6 C 0 km/h
573 17-01-2011 18:30:02 6 C 6.02 g/m*3 6 C 0 km/h
574 17-01-2011 18:42:01 6 C 6.1 g/m*3 6 C 0 km/h
575 17-01-2011 18:54:01 6 C 6.1 g/m*3 6 C 0 km/h
Sensor: Nr:Datum:Temp:Abs-Feuchte:Windchill:Wind:
Aussen-T/F 576 17-01-2011 19:06:01 6 C 6.1 g/m*3 6 C 0 km/h
577 17-01-2011 19:18:02 6.2 C 6.1 g/m*3 6.2 C 0 km/h
578 17-01-2011 19:30:02 6.3 C 6.07 g/m*3 6.3 C 0 km/h
579 17-01-2011 19:42:02 6.3 C 6.07 g/m*3 6.3 C 0 km/h
580 17-01-2011 19:54:03 6.3 C 6.14 g/m*3 6.3 C 0 km/h
581 17-01-2011 20:06:03 6.5 C 6.15 g/m*3 6.5 C 0 km/h
582 17-01-2011 20:18:02 6.7 C 6.15 g/m*3 6.7 C 0 km/h
583 17-01-2011 20:30:02 6.8 C 6.19 g/m*3 6.8 C 0 km/h
584 17-01-2011 20:42:02 7.3 C 6.24 g/m*3 7.3 C 0 km/h
585 17-01-2011 20:54:02 7.4 C 6.2 g/m*3 7.4 C 0 km/h
586 17-01-2011 21:06:02 7.5 C 6.24 g/m*3 7.5 C 0 km/h
587 17-01-2011 21:18:03 7.9 C 6.32 g/m*3 7.9 C 0 km/h
588 17-01-2011 21:30:03 8.2 C 6.2 g/m*3 8.2 C 0 km/h
589 17-01-2011 21:42:02 8.2 C 6.2 g/m*3 8.2 C 0 km/h
590 17-01-2011 21:54:02 8.4 C 6.19 g/m*3 8.4 C 0 km/h
591 17-01-2011 22:06:02 8.2 C 6.11 g/m*3 8.2 C 0 km/h
592 17-01-2011 22:19:04 8.4 C 6.11 g/m*3 8.4 C 0 km/h
593 17-01-2011 22:31:04 8.2 C 6.11 g/m*3 8.2 C 0 km/h
594 17-01-2011 22:43:04 8.2 C 6.11 g/m*3 8.2 C 0 km/h
595 17-01-2011 22:55:04 8.4 C 6.19 g/m*3 8.4 C 0 km/h
596 17-01-2011 23:07:04 8.4 C 6.19 g/m*3 8.4 C 0 km/h
597 17-01-2011 23:19:04 8.6 C 6.27 g/m*3 8.6 C 0 km/h
598 17-01-2011 23:31:04 8.6 C 6.19 g/m*3 8.6 C 0 km/h
599 17-01-2011 23:43:04 8.5 C 6.23 g/m*3 8.5 C 0 km/h
600 17-01-2011 23:55:04 8.7 C 6.31 g/m*3 8.7 C 0 km/h
Sensor: Nr:Datum:Temp:Abs-Feuchte:Windchill:Wind:
Aussen-T/F 601 18-01-2011 00:07:04 8.5 C 6.23 g/m*3 8.5 C 0 km/h
602 18-01-2011 00:19:04 8.3 C 6.15 g/m*3 8.3 C 0 km/h
603 18-01-2011 00:31:04 7.5 C 6 g/m*3 7.5 C 0 km/h
604 18-01-2011 00:43:04 6.9 C 6.08 g/m*3 6.9 C 0 km/h
605 18-01-2011 00:55:04 7 C 6.2 g/m*3 7 C 0 km/h
606 18-01-2011 01:07:04 7.4 C 6.36 g/m*3 7.4 C 0 km/h
607 18-01-2011 01:19:04 7.3 C 6.24 g/m*3 7.3 C 0 km/h
608 18-01-2011 01:31:05 7.3 C 6.24 g/m*3 7.3 C 0 km/h
609 18-01-2011 01:43:05 6.6 C 6.04 g/m*3 6.6 C 0 km/h
610 18-01-2011 01:55:05 5.6 C 5.8 g/m*3 5.6 C 0 km/h
611 18-01-2011 02:07:05 5.3 C 5.82 g/m*3 5.3 C 0 km/h
612 18-01-2011 02:19:05 5.1 C 5.81 g/m*3 5.1 C 0 km/h
613 18-01-2011 02:31:05 5 C 5.84 g/m*3 5 C 0 km/h
614 18-01-2011 02:43:05 5.3 C 6.03 g/m*3 5.3 C 0 km/h
615 18-01-2011 02:55:05 5.5 C 6.18 g/m*3 5.5 C 0 km/h
616 18-01-2011 03:07:05 7 C 6.35 g/m*3 7 C 0 km/h
617 18-01-2011 03:19:05 6.6 C 6.04 g/m*3 6.6 C 0 km/h
618 18-01-2011 03:31:05 7.1 C 6.08 g/m*3 7.1 C 0 km/h
619 18-01-2011 03:43:05 7.6 C 6.12 g/m*3 7.6 C 0 km/h
620 18-01-2011 03:55:05 7.2 C 5.89 g/m*3 7.2 C 0 km/h
621 18-01-2011 04:07:05 6.7 C 5.93 g/m*3 6.7 C 0 km/h
622 18-01-2011 04:19:05 6.7 C 5.93 g/m*3 6.7 C 0 km/h
623 18-01-2011 04:31:05 7.4 C 6.04 g/m*3 7.4 C 0 km/h
624 18-01-2011 04:43:05 7.2 C 5.89 g/m*3 7.2 C 0 km/h
625 18-01-2011 04:55:05 7.3 C 6 g/m*3 7.3 C 0 km/h
Sensor: Nr:Datum:Temp:Abs-Feuchte:Windchill:Wind:
Aussen-T/F 626 18-01-2011 05:07:05 7.4 C 6.04 g/m*3 7.4 C 0 km/h
627 18-01-2011 05:19:05 7.6 C 6.12 g/m*3 7.6 C 0 km/h
628 18-01-2011 05:31:06 7.5 C 5.84 g/m*3 7.5 C 0 km/h
629 18-01-2011 05:43:06 8 C 5.79 g/m*3 8 C 0 km/h
630 18-01-2011 05:55:06 7.9 C 5.91 g/m*3 7.9 C 0 km/h
631 18-01-2011 06:07:06 7.5 C 5.84 g/m*3 7.5 C 0 km/h
632 18-01-2011 06:19:06 7.6 C 5.96 g/m*3 7.6 C 0 km/h
633 18-01-2011 06:31:06 6.8 C 5.89 g/m*3 6.8 C 0 km/h
634 18-01-2011 06:43:06 6.8 C 6.04 g/m*3 6.8 C 0 km/h
635 18-01-2011 06:55:06 7.6 C 6.12 g/m*3 7.6 C 0 km/h
636 18-01-2011 07:07:06 7 C 5.81 g/m*3 7 C 0 km/h
637 18-01-2011 07:19:06 6.6 C 5.96 g/m*3 6.6 C 0 km/h
638 18-01-2011 07:31:06 7.1 C 6.08 g/m*3 7.1 C 0 km/h
639 18-01-2011 07:43:06 7.3 C 6.08 g/m*3 7.3 C 0 km/h
640 18-01-2011 07:55:02 7.7 C 6.24 g/m*3 7.7 C 0 km/h
641 18-01-2011 08:07:02 7.1 C 5.93 g/m*3 7.1 C 0 km/h
642 18-01-2011 08:19:01 7.2 C 5.97 g/m*3 7.2 C 0 km/h
643 18-01-2011 08:31:02 7 C 5.97 g/m*3 7 C 0 km/h
644 18-01-2011 08:43:02 7.2 C 5.97 g/m*3 7.2 C 0 km/h
645 18-01-2011 08:55:01 8 C 6.04 g/m*3 8 C 0 km/h
646 18-01-2011 09:07:02 8.3 C 6.07 g/m*3 8.3 C 0 km/h
647 18-01-2011 09:19:01 8.4 C 6.02 g/m*3 8.4 C 0 km/h
648 18-01-2011 09:31:02 8.4 C 6.02 g/m*3 8.4 C 0 km/h
649 18-01-2011 09:43:02 8.6 C 6.02 g/m*3 8.6 C 0 km/h
650 18-01-2011 09:55:02 8.5 C 6.06 g/m*3 8.5 C 0 km/h
Sensor: Nr:Datum:Temp:Abs-Feuchte:Windchill:Wind:
Aussen-T/F 651 18-01-2011 10:07:02 8.6 C 6.1 g/m*3 8.6 C 0 km/h
652 18-01-2011 10:19:01 8.8 C 6.09 g/m*3 8.8 C 0 km/h
653 18-01-2011 10:31:02 9 C 5.99 g/m*3 9 C 0 km/h
654 18-01-2011 10:43:02 8.8 C 6.18 g/m*3 8.8 C 0 km/h
655 18-01-2011 10:55:02 9 C 6.08 g/m*3 9 C 0 km/h
656 18-01-2011 11:07:02 9.1 C 6.03 g/m*3 9.1 C 0 km/h
657 18-01-2011 11:19:02 9.2 C 6.07 g/m*3 9.2 C 0 km/h
658 18-01-2011 11:31:02 9.1 C 6.03 g/m*3 9.1 C 0 km/h
659 18-01-2011 11:43:02 8.4 C 6.02 g/m*3 8.4 C 0 km/h
660 18-01-2011 11:55:02 7.9 C 6.08 g/m*3 7.9 C 0 km/h
661 18-01-2011 12:07:02 8.8 C 6.27 g/m*3 8.8 C 0 km/h
662 18-01-2011 12:19:02 9.8 C 6.22 g/m*3 9.8 C 0 km/h
663 18-01-2011 12:31:01 10 C 5.92 g/m*3 10 C 0 km/h
664 18-01-2011 12:43:01 9.9 C 5.98 g/m*3 9.9 C 0 km/h
665 18-01-2011 12:55:02 10 C 5.92 g/m*3 10 C 0 km/h
666 18-01-2011 13:07:01 9.8 C 6.03 g/m*3 9.8 C 0 km/h
667 18-01-2011 13:19:01 9.9 C 5.98 g/m*3 9.9 C 0 km/h
668 18-01-2011 13:31:02 9.8 C 5.94 g/m*3 9.8 C 0 km/h
669 18-01-2011 13:43:02 9.6 C 6.14 g/m*3 9.6 C 0 km/h
670 18-01-2011 13:55:02 9.4 C 6.15 g/m*3 9.4 C 0 km/h
671 18-01-2011 14:07:02 9.8 C 6.12 g/m*3 9.8 C 0 km/h
672 18-01-2011 14:19:02 9.6 C 5.86 g/m*3 9.6 C 0 km/h
673 18-01-2011 14:31:02 9.6 C 5.86 g/m*3 9.6 C 0 km/h
674 18-01-2011 14:43:02 9.7 C 5.99 g/m*3 9.7 C 0 km/h
675 18-01-2011 14:55:02 9.9 C 5.88 g/m*3 9.9 C 0 km/h
Sensor: Nr:Datum:Temp:Abs-Feuchte:Windchill:Wind:
Aussen-T/F 676 18-01-2011 15:07:03 10.2 C 5.71 g/m*3 10.2 C 0 km/h
677 18-01-2011 15:19:02 9.5 C 5.73 g/m*3 9.5 C 0 km/h
678 18-01-2011 15:31:02 9.1 C 5.68 g/m*3 9.1 C 0 km/h
679 18-01-2011 15:43:02 9.2 C 5.63 g/m*3 9.2 C 0 km/h
680 18-01-2011 15:55:01 9.1 C 5.59 g/m*3 9.1 C 0 km/h
681 18-01-2011 16:07:02 9.1 C 5.5 g/m*3 9.1 C 0 km/h
682 18-01-2011 16:19:01 8.8 C 5.48 g/m*3 8.8 C 0 km/h
683 18-01-2011 16:31:01 9.1 C 5.59 g/m*3 9.1 C 0 km/h
684 18-01-2011 16:43:01 7.8 C 5.96 g/m*3 7.8 C 0 km/h
685 18-01-2011 16:55:01 7.1 C 6.24 g/m*3 7.1 C 0 km/h
686 18-01-2011 17:07:01 6.6 C 6.27 g/m*3 6.6 C 0 km/h
687 18-01-2011 17:19:02 6.5 C 6.37 g/m*3 6.5 C 0 km/h
688 18-01-2011 17:31:01 6.5 C 6.45 g/m*3 6.5 C 0 km/h
689 18-01-2011 17:43:01 6.6 C 6.49 g/m*3 6.6 C 0 km/h
690 18-01-2011 17:55:03 6.5 C 6.52 g/m*3 6.5 C 0 km/h
691 18-01-2011 18:07:02 6.4 C 6.48 g/m*3 6.4 C 0 km/h
692 18-01-2011 18:19:02 6.3 C 6.37 g/m*3 6.3 C 0 km/h
693 18-01-2011 18:31:02 6.1 C 6.21 g/m*3 6.1 C 0 km/h
694 18-01-2011 18:43:02 6.1 C 6.21 g/m*3 6.1 C 0 km/h
695 18-01-2011 18:55:02 5.9 C 6.27 g/m*3 5.9 C 0 km/h
696 18-01-2011 19:07:02 5.9 C 6.27 g/m*3 5.9 C 0 km/h
697 18-01-2011 19:19:02 5.9 C 6.27 g/m*3 5.9 C 0 km/h
698 18-01-2011 19:31:03 5.9 C 6.27 g/m*3 5.9 C 0 km/h
699 18-01-2011 19:43:03 5.8 C 6.23 g/m*3 5.8 C 0 km/h
700 18-01-2011 19:55:02 5.8 C 6.23 g/m*3 5.8 C 0 km/h
Sensor: Nr:Datum:Temp:Abs-Feuchte:Windchill:Wind:
Aussen-T/F 701 18-01-2011 20:07:02 5.8 C 6.23 g/m*3 5.8 C 0 km/h
702 18-01-2011 20:19:02 5.9 C 6.13 g/m*3 5.9 C 0 km/h
703 18-01-2011 20:31:02 5.8 C 6.02 g/m*3 5.8 C 0 km/h
704 18-01-2011 20:43:02 5.7 C 5.98 g/m*3 5.7 C 0 km/h
705 18-01-2011 20:55:02 5.5 C 5.83 g/m*3 5.5 C 0 km/h
706 18-01-2011 21:07:02 5.3 C 5.75 g/m*3 5.3 C 0 km/h
707 18-01-2011 21:19:02 5.2 C 5.65 g/m*3 5.2 C 0 km/h
708 18-01-2011 21:31:01 5.1 C 5.61 g/m*3 5.1 C 0 km/h
709 18-01-2011 21:43:01 5 C 5.57 g/m*3 5 C 0 km/h
710 18-01-2011 21:55:02 4.9 C 5.54 g/m*3 4.9 C 0 km/h
711 18-01-2011 22:08:03 4.8 C 5.57 g/m*3 4.8 C 0 km/h
712 18-01-2011 22:20:03 4.7 C 5.46 g/m*3 4.7 C 0 km/h
713 18-01-2011 22:32:03 4.6 C 5.43 g/m*3 4.6 C 0 km/h
714 18-01-2011 22:44:03 4.6 C 5.49 g/m*3 4.6 C 0 km/h
715 18-01-2011 22:56:03 4.5 C 5.46 g/m*3 4.5 C 0 km/h
716 18-01-2011 23:08:04 4.6 C 5.49 g/m*3 4.6 C 0 km/h
717 18-01-2011 23:20:04 4.6 C 5.43 g/m*3 4.6 C 0 km/h
718 18-01-2011 23:32:04 4.6 C 5.43 g/m*3 4.6 C 0 km/h
719 18-01-2011 23:44:04 4.8 C 5.5 g/m*3 4.8 C 0 km/h
720 18-01-2011 23:56:04 4.8 C 5.5 g/m*3 4.8 C 0 km/h
721 19-01-2011 00:08:04 4.7 C 5.46 g/m*3 4.7 C 0 km/h
722 19-01-2011 00:20:04 4.6 C 5.36 g/m*3 4.6 C 0 km/h
723 19-01-2011 00:32:04 4.3 C 5.06 g/m*3 4.3 C 0 km/h
724 19-01-2011 00:44:04 4.1 C 5.06 g/m*3 4.1 C 0 km/h
725 19-01-2011 00:56:04 4.1 C 5.06 g/m*3 4.1 C 0 km/h
Sensor: Nr:Datum:Temp:Abs-Feuchte:Windchill:Wind:
Aussen-T/F 726 19-01-2011 01:08:04 4 C 4.9 g/m*3 4 C 0 km/h
727 19-01-2011 01:20:04 4 C 4.83 g/m*3 4 C 0 km/h
728 19-01-2011 01:32:04 3.8 C 4.71 g/m*3 3.8 C 0 km/h
729 19-01-2011 01:44:04 3.8 C 4.71 g/m*3 3.8 C 0 km/h
730 19-01-2011 01:56:04 3.8 C 4.71 g/m*3 3.8 C 0 km/h
731 19-01-2011 02:08:04 3.8 C 4.64 g/m*3 3.8 C 0 km/h
732 19-01-2011 02:20:04 3.7 C 4.67 g/m*3 3.7 C 0 km/h
733 19-01-2011 02:32:04 3.1 C 4.61 g/m*3 3.1 C 0 km/h
734 19-01-2011 02:44:04 3.2 C 4.7 g/m*3 3.2 C 0 km/h
735 19-01-2011 02:56:04 3.3 C 4.73 g/m*3 3.3 C 0 km/h
736 19-01-2011 03:08:04 3.3 C 4.73 g/m*3 3.3 C 0 km/h
737 19-01-2011 03:20:05 2.9 C 4.78 g/m*3 2.9 C 0 km/h
738 19-01-2011 03:32:05 2.7 C 4.78 g/m*3 2.7 C 0 km/h
739 19-01-2011 03:44:05 2.7 C 4.84 g/m*3 2.7 C 0 km/h
740 19-01-2011 03:56:05 3 C 4.88 g/m*3 3 C 0 km/h
741 19-01-2011 04:08:05 3 C 4.88 g/m*3 3 C 0 km/h
742 19-01-2011 04:20:05 3 C 4.88 g/m*3 3 C 0 km/h
743 19-01-2011 04:32:05 2.8 C 4.93 g/m*3 2.8 C 0 km/h
744 19-01-2011 04:44:05 2.7 C 4.89 g/m*3 2.7 C 0 km/h
745 19-01-2011 04:56:05 2.5 C 4.89 g/m*3 2.5 C 0 km/h
746 19-01-2011 05:08:05 2.5 C 4.94 g/m*3 2.5 C 0 km/h
747 19-01-2011 05:20:05 2.5 C 4.94 g/m*3 2.5 C 0 km/h
748 19-01-2011 05:32:05 2.5 C 4.94 g/m*3 2.5 C 0 km/h
749 19-01-2011 05:44:05 2.6 C 5.03 g/m*3 2.6 C 0 km/h
750 19-01-2011 05:56:05 2.7 C 5.07 g/m*3 2.7 C 0 km/h
Sensor: Nr:Datum:Temp:Abs-Feuchte:Windchill:Wind:
Aussen-T/F 751 19-01-2011 06:08:05 2.6 C 4.98 g/m*3 2.6 C 0 km/h
752 19-01-2011 06:20:05 2.6 C 5.03 g/m*3 2.6 C 0 km/h
753 19-01-2011 06:32:05 2.6 C 4.98 g/m*3 2.6 C 0 km/h
754 19-01-2011 06:44:05 2.6 C 4.98 g/m*3 2.6 C 0 km/h
755 19-01-2011 06:56:05 2.8 C 4.99 g/m*3 2.8 C 0 km/h
756 19-01-2011 07:08:05 2.8 C 4.87 g/m*3 2.8 C 0 km/h
757 19-01-2011 07:20:06 2.9 C 4.84 g/m*3 2.9 C 0 km/h
758 19-01-2011 07:32:06 2.8 C 4.81 g/m*3 2.8 C 0 km/h
759 19-01-2011 07:44:06 2.9 C 4.9 g/m*3 2.9 C 0 km/h
760 19-01-2011 07:56:02 2.6 C 4.8 g/m*3 2.6 C 0 km/h
761 19-01-2011 08:08:02 2.4 C 4.8 g/m*3 2.4 C 0 km/h
762 19-01-2011 08:20:02 2.3 C 4.82 g/m*3 2.3 C 0 km/h
763 19-01-2011 08:32:02 2.3 C 4.88 g/m*3 2.3 C 0 km/h
764 19-01-2011 08:44:02 2.3 C 4.88 g/m*3 2.3 C 0 km/h
765 19-01-2011 08:56:02 2.7 C 4.95 g/m*3 2.7 C 0 km/h
766 19-01-2011 09:08:02 2.4 C 4.74 g/m*3 2.4 C 0 km/h
767 19-01-2011 09:20:03 2.5 C 4.77 g/m*3 2.5 C 0 km/h
768 19-01-2011 09:32:02 2.7 C 4.84 g/m*3 2.7 C 0 km/h
769 19-01-2011 09:44:02 2.9 C 4.9 g/m*3 2.9 C 0 km/h
770 19-01-2011 09:56:02 3 C 4.82 g/m*3 3 C 0 km/h
771 19-01-2011 10:08:02 3.1 C 4.85 g/m*3 3.1 C 0 km/h
772 19-01-2011 10:20:02 2.1 C 4.53 g/m*3 2.1 C 0 km/h
773 19-01-2011 10:32:03 2 C 4.56 g/m*3 2 C 0 km/h
774 19-01-2011 10:44:03 2.1 C 4.59 g/m*3 2.1 C 0 km/h
775 19-01-2011 10:56:02 2.7 C 4.89 g/m*3 2.7 C 0 km/h
Sensor: Nr:Datum:Temp:Abs-Feuchte:Windchill:Wind:
Aussen-T/F 776 19-01-2011 11:08:01 3.1 C 4.85 g/m*3 3.1 C 0 km/h
777 19-01-2011 11:20:02 3.5 C 4.86 g/m*3 3.5 C 0 km/h
778 19-01-2011 11:32:02 4 C 4.96 g/m*3 4 C 0 km/h
779 19-01-2011 11:44:02 3.9 C 4.8 g/m*3 3.9 C 0 km/h
780 19-01-2011 11:56:02 3.7 C 4.74 g/m*3 3.7 C 0 km/h
781 19-01-2011 12:08:03 4.1 C 4.67 g/m*3 4.1 C 0 km/h
782 19-01-2011 12:20:02 4.3 C 4.67 g/m*3 4.3 C 0 km/h
783 19-01-2011 12:32:02 4.4 C 4.7 g/m*3 4.4 C 0 km/h
784 19-01-2011 12:44:03 4.6 C 4.57 g/m*3 4.6 C 0 km/h
785 19-01-2011 12:56:01 4.8 C 4.56 g/m*3 4.8 C 0 km/h
786 19-01-2011 13:08:02 4.8 C 4.43 g/m*3 4.8 C 0 km/h
787 19-01-2011 13:20:01 4.7 C 4.4 g/m*3 4.7 C 0 km/h
788 19-01-2011 13:32:01 5 C 4.28 g/m*3 5 C 0 km/h
789 19-01-2011 13:44:01 5.2 C 4.34 g/m*3 5.2 C 0 km/h
790 19-01-2011 13:56:01 5 C 4.28 g/m*3 5 C 0 km/h
791 19-01-2011 14:08:02 5.3 C 4.3 g/m*3 5.3 C 0 km/h
792 19-01-2011 14:20:02 5.2 C 4.27 g/m*3 5.2 C 0 km/h
793 19-01-2011 14:32:01 5.4 C 4.19 g/m*3 5.4 C 0 km/h
794 19-01-2011 14:44:01 5.5 C 4.21 g/m*3 5.5 C 0 km/h
795 19-01-2011 14:56:01 5.4 C 4.26 g/m*3 5.4 C 0 km/h
796 19-01-2011 15:08:01 5.1 C 4.17 g/m*3 5.1 C 0 km/h
797 19-01-2011 15:20:02 4.9 C 4.12 g/m*3 4.9 C 0 km/h
798 19-01-2011 15:32:01 4.9 C 4.12 g/m*3 4.9 C 0 km/h
799 19-01-2011 15:44:01 4.9 C 4.12 g/m*3 4.9 C 0 km/h
800 19-01-2011 15:56:02 4.9 C 4.12 g/m*3 4.9 C 0 km/h
Sensor: Nr:Datum:Temp:Abs-Feuchte:Windchill:Wind:
Aussen-T/F 801 19-01-2011 16:08:01 4.9 C 4.12 g/m*3 4.9 C 0 km/h
802 19-01-2011 16:20:01 4.9 C 4.12 g/m*3 4.9 C 0 km/h
803 19-01-2011 16:32:02 3.8 C 4.52 g/m*3 3.8 C 0 km/h
804 19-01-2011 16:44:02 3.8 C 4.52 g/m*3 3.8 C 0 km/h
805 19-01-2011 16:56:02 3.5 C 4.55 g/m*3 3.5 C 0 km/h
806 19-01-2011 17:08:02 3.7 C 4.55 g/m*3 3.7 C 0 km/h
807 19-01-2011 17:20:02 3.5 C 4.49 g/m*3 3.5 C 0 km/h
808 19-01-2011 17:32:02 3.5 C 4.49 g/m*3 3.5 C 0 km/h
809 19-01-2011 17:44:02 3.1 C 4.49 g/m*3 3.1 C 0 km/h
810 19-01-2011 17:56:01 2.9 C 4.67 g/m*3 2.9 C 0 km/h
811 19-01-2011 18:08:02 2.8 C 4.69 g/m*3 2.8 C 0 km/h
812 19-01-2011 18:20:01 2.9 C 4.78 g/m*3 2.9 C 0 km/h
813 19-01-2011 18:32:02 2.6 C 4.69 g/m*3 2.6 C 0 km/h
814 19-01-2011 18:44:03 3.2 C 4.82 g/m*3 3.2 C 0 km/h
815 19-01-2011 18:56:02 3.2 C 4.52 g/m*3 3.2 C 0 km/h
816 19-01-2011 19:08:02 3.4 C 4.46 g/m*3 3.4 C 0 km/h
817 19-01-2011 19:20:01 3.5 C 4.43 g/m*3 3.5 C 0 km/h
818 19-01-2011 19:32:02 3.5 C 4.37 g/m*3 3.5 C 0 km/h
819 19-01-2011 19:44:02 3 C 4.46 g/m*3 3 C 0 km/h
820 19-01-2011 19:56:01 2.6 C 4.57 g/m*3 2.6 C 0 km/h
821 19-01-2011 20:08:02 2.3 C 4.59 g/m*3 2.3 C 0 km/h
822 19-01-2011 20:20:02 2.2 C 4.62 g/m*3 2.2 C 0 km/h
823 19-01-2011 20:32:02 2.4 C 4.74 g/m*3 2.4 C 0 km/h
824 19-01-2011 20:44:02 2.4 C 4.74 g/m*3 2.4 C 0 km/h
825 19-01-2011 20:56:02 2.5 C 4.77 g/m*3 2.5 C 0 km/h
Sensor: Nr:Datum:Temp:Abs-Feuchte:Windchill:Wind:
Aussen-T/F 826 19-01-2011 21:08:02 2.6 C 4.86 g/m*3 2.6 C 0 km/h
827 19-01-2011 21:20:02 2.5 C 4.77 g/m*3 2.5 C 0 km/h
828 19-01-2011 21:32:02 2.4 C 4.74 g/m*3 2.4 C 0 km/h
829 19-01-2011 21:44:02 2.5 C 4.77 g/m*3 2.5 C 0 km/h
830 19-01-2011 21:56:02 2.5 C 4.77 g/m*3 2.5 C 0 km/h
831 19-01-2011 22:08:02 2.4 C 4.74 g/m*3 2.4 C 0 km/h
832 19-01-2011 22:21:03 2.4 C 4.74 g/m*3 2.4 C 0 km/h
833 19-01-2011 22:33:03 2.4 C 4.74 g/m*3 2.4 C 0 km/h
834 19-01-2011 22:45:03 2.4 C 4.74 g/m*3 2.4 C 0 km/h
835 19-01-2011 22:57:03 2.4 C 4.68 g/m*3 2.4 C 0 km/h
836 19-01-2011 23:09:03 2.4 C 4.68 g/m*3 2.4 C 0 km/h
837 19-01-2011 23:21:03 2.4 C 4.74 g/m*3 2.4 C 0 km/h
838 19-01-2011 23:33:03 2.4 C 4.74 g/m*3 2.4 C 0 km/h
839 19-01-2011 23:45:03 2.1 C 4.64 g/m*3 2.1 C 0 km/h
840 19-01-2011 23:57:03 2.1 C 4.64 g/m*3 2.1 C 0 km/h

Legende:
   Min
   Max


Maximal/Minimal-Werte vom 13.01.2011 - 19.01.2011

Sensor Min Max Avg
Temp
(Aussen-T/F)
-1.1 °C
17-01-2011  08:30:02
13.4 °C
13-01-2011  14:38:01
7.62 °C
Abs-Feuchte
(Aussen-T/F)
4.12 g/m*3
19-01-2011  15:20:02
8.57 g/m*3
13-01-2011  16:50:01
6.14 g/m*3
Windchill
(Aussen-T/F)
-1.1 C
17-01-2011  08:30:02
13.4 C
13-01-2011  14:38:01
7.61 C

Die Daten stammen von einer Davis Vantage Pro 2 Wetter-Station und werden unter Linux mit der Software wview2wettercgi und aufbereitet. Alle Angaben erfolgen ohne Gewähr für ihre Vollständigkeit oder Richtigkeit.
Kontakt: Rainer Krienke krienke@uni-koblenz.de . Meine Webseiten an der Uni Koblenz oder privat.
Version: $Revision: 0.78 $